sensor_id;sensor_type;location;lat;lon;timestamp;P1;durP1;ratioP1;P2;durP2;ratioP2
20802;SDS011;10562;-33.856;151.182;2022-12-18T00:01:47;5.47;;;4.22;;
20802;SDS011;10562;-33.856;151.182;2022-12-18T00:04:20;6.00;;;4.97;;
20802;SDS011;10562;-33.856;151.182;2022-12-18T00:06:54;5.75;;;5.15;;
20802;SDS011;10562;-33.856;151.182;2022-12-18T00:09:25;6.60;;;4.57;;
20802;SDS011;10562;-33.856;151.182;2022-12-18T00:11:55;7.32;;;4.65;;
20802;SDS011;10562;-33.856;151.182;2022-12-18T00:14:26;6.78;;;4.40;;
20802;SDS011;10562;-33.856;151.182;2022-12-18T00:16:57;6.05;;;3.65;;
20802;SDS011;10562;-33.856;151.182;2022-12-18T00:19:28;4.72;;;3.92;;
20802;SDS011;10562;-33.856;151.182;2022-12-18T00:22:01;5.78;;;3.80;;
20802;SDS011;10562;-33.856;151.182;2022-12-18T00:24:32;4.47;;;3.92;;
20802;SDS011;10562;-33.856;151.182;2022-12-18T00:27:03;6.93;;;4.65;;
20802;SDS011;10562;-33.856;151.182;2022-12-18T00:29:34;6.13;;;4.68;;
20802;SDS011;10562;-33.856;151.182;2022-12-18T00:32:05;6.22;;;4.43;;
20802;SDS011;10562;-33.856;151.182;2022-12-18T00:34:36;4.93;;;4.03;;
20802;SDS011;10562;-33.856;151.182;2022-12-18T00:37:09;8.50;;;4.22;;
20802;SDS011;10562;-33.856;151.182;2022-12-18T00:39:40;4.57;;;3.35;;
20802;SDS011;10562;-33.856;151.182;2022-12-18T00:42:10;4.82;;;4.18;;
20802;SDS011;10562;-33.856;151.182;2022-12-18T00:44:57;5.00;;;3.53;;
20802;SDS011;10562;-33.856;151.182;2022-12-18T00:47:28;6.45;;;4.13;;
20802;SDS011;10562;-33.856;151.182;2022-12-18T00:49:58;4.35;;;2.97;;
20802;SDS011;10562;-33.856;151.182;2022-12-18T00:52:31;11.82;;;7.22;;
20802;SDS011;10562;-33.856;151.182;2022-12-18T00:55:02;10.45;;;5.65;;
20802;SDS011;10562;-33.856;151.182;2022-12-18T00:57:34;6.43;;;4.32;;
20802;SDS011;10562;-33.856;151.182;2022-12-18T01:00:05;4.22;;;3.28;;
20802;SDS011;10562;-33.856;151.182;2022-12-18T01:02:39;7.07;;;3.70;;
20802;SDS011;10562;-33.856;151.182;2022-12-18T01:05:11;7.53;;;4.97;;
20802;SDS011;10562;-33.856;151.182;2022-12-18T01:07:44;6.60;;;4.32;;
20802;SDS011;10562;-33.856;151.182;2022-12-18T01:10:15;17.52;;;7.75;;
20802;SDS011;10562;-33.856;151.182;2022-12-18T01:12:46;75.63;;;38.88;;
20802;SDS011;10562;-33.856;151.182;2022-12-18T01:15:18;27.50;;;15.02;;
20802;SDS011;10562;-33.856;151.182;2022-12-18T01:17:49;14.32;;;9.85;;
20802;SDS011;10562;-33.856;151.182;2022-12-18T01:20:22;13.55;;;6.95;;
20802;SDS011;10562;-33.856;151.182;2022-12-18T01:22:55;6.93;;;4.75;;
20802;SDS011;10562;-33.856;151.182;2022-12-18T01:25:25;8.90;;;4.47;;
20802;SDS011;10562;-33.856;151.182;2022-12-18T01:27:56;7.82;;;5.30;;
20802;SDS011;10562;-33.856;151.182;2022-12-18T01:30:28;7.75;;;4.07;;
20802;SDS011;10562;-33.856;151.182;2022-12-18T01:32:58;7.03;;;3.75;;
20802;SDS011;10562;-33.856;151.182;2022-12-18T01:35:29;7.63;;;4.22;;
20802;SDS011;10562;-33.856;151.182;2022-12-18T01:38:02;6.93;;;3.40;;
20802;SDS011;10562;-33.856;151.182;2022-12-18T01:40:33;4.93;;;3.03;;
20802;SDS011;10562;-33.856;151.182;2022-12-18T01:43:04;7.25;;;3.17;;
20802;SDS011;10562;-33.856;151.182;2022-12-18T01:45:38;5.85;;;2.83;;
20802;SDS011;10562;-33.856;151.182;2022-12-18T01:48:09;7.88;;;3.38;;
20802;SDS011;10562;-33.856;151.182;2022-12-18T01:50:40;8.07;;;3.30;;
20802;SDS011;10562;-33.856;151.182;2022-12-18T01:53:14;9.50;;;3.72;;
20802;SDS011;10562;-33.856;151.182;2022-12-18T01:55:47;7.63;;;3.20;;
20802;SDS011;10562;-33.856;151.182;2022-12-18T01:58:20;8.43;;;3.78;;
20802;SDS011;10562;-33.856;151.182;2022-12-18T02:00:56;10.75;;;4.25;;
20802;SDS011;10562;-33.856;151.182;2022-12-18T02:03:27;11.32;;;3.47;;
20802;SDS011;10562;-33.856;151.182;2022-12-18T02:05:59;13.43;;;3.42;;
20802;SDS011;10562;-33.856;151.182;2022-12-18T02:08:45;13.05;;;3.70;;
20802;SDS011;10562;-33.856;151.182;2022-12-18T02:11:30;6.97;;;3.67;;
20802;SDS011;10562;-33.856;151.182;2022-12-18T02:14:13;11.20;;;3.10;;
20802;SDS011;10562;-33.856;151.182;2022-12-18T02:16:54;14.98;;;4.05;;
20802;SDS011;10562;-33.856;151.182;2022-12-18T02:19:48;12.95;;;3.50;;
20802;SDS011;10562;-33.856;151.182;2022-12-18T02:22:33;7.70;;;2.97;;
20802;SDS011;10562;-33.856;151.182;2022-12-18T02:25:21;8.57;;;3.67;;
20802;SDS011;10562;-33.856;151.182;2022-12-18T02:28:02;8.25;;;3.80;;
20802;SDS011;10562;-33.856;151.182;2022-12-18T02:30:36;7.75;;;3.42;;
20802;SDS011;10562;-33.856;151.182;2022-12-18T02:33:09;7.75;;;3.15;;
20802;SDS011;10562;-33.856;151.182;2022-12-18T02:35:42;8.68;;;2.67;;
20802;SDS011;10562;-33.856;151.182;2022-12-18T02:38:16;9.25;;;2.03;;
20802;SDS011;10562;-33.856;151.182;2022-12-18T02:40:50;12.00;;;1.83;;
20802;SDS011;10562;-33.856;151.182;2022-12-18T02:43:24;10.73;;;1.85;;
20802;SDS011;10562;-33.856;151.182;2022-12-18T02:45:56;8.60;;;1.55;;
20802;SDS011;10562;-33.856;151.182;2022-12-18T02:48:29;7.90;;;1.25;;
20802;SDS011;10562;-33.856;151.182;2022-12-18T02:51:03;11.45;;;1.75;;
20802;SDS011;10562;-33.856;151.182;2022-12-18T02:53:38;11.35;;;1.73;;
20802;SDS011;10562;-33.856;151.182;2022-12-18T02:56:15;9.25;;;1.40;;
20802;SDS011;10562;-33.856;151.182;2022-12-18T02:58:52;8.27;;;1.65;;
20802;SDS011;10562;-33.856;151.182;2022-12-18T03:01:30;9.73;;;1.45;;
20802;SDS011;10562;-33.856;151.182;2022-12-18T03:04:04;11.93;;;1.50;;
20802;SDS011;10562;-33.856;151.182;2022-12-18T03:06:39;5.72;;;1.50;;
20802;SDS011;10562;-33.856;151.182;2022-12-18T03:09:14;8.48;;;1.45;;
20802;SDS011;10562;-33.856;151.182;2022-12-18T03:11:54;5.47;;;1.10;;
20802;SDS011;10562;-33.856;151.182;2022-12-18T03:14:56;9.40;;;1.30;;
20802;SDS011;10562;-33.856;151.182;2022-12-18T03:17:31;9.75;;;1.35;;
20802;SDS011;10562;-33.856;151.182;2022-12-18T03:20:04;8.90;;;1.50;;
20802;SDS011;10562;-33.856;151.182;2022-12-18T03:22:37;7.10;;;1.33;;
20802;SDS011;10562;-33.856;151.182;2022-12-18T03:25:11;7.55;;;1.40;;
20802;SDS011;10562;-33.856;151.182;2022-12-18T03:27:45;6.53;;;1.30;;
20802;SDS011;10562;-33.856;151.182;2022-12-18T03:30:20;9.48;;;1.30;;
20802;SDS011;10562;-33.856;151.182;2022-12-18T03:32:52;8.13;;;1.38;;
20802;SDS011;10562;-33.856;151.182;2022-12-18T03:35:28;6.22;;;1.13;;
20802;SDS011;10562;-33.856;151.182;2022-12-18T03:38:02;6.97;;;1.80;;
20802;SDS011;10562;-33.856;151.182;2022-12-18T03:40:35;11.90;;;1.55;;
20802;SDS011;10562;-33.856;151.182;2022-12-18T03:43:17;12.95;;;1.90;;
20802;SDS011;10562;-33.856;151.182;2022-12-18T03:45:56;9.20;;;1.60;;
20802;SDS011;10562;-33.856;151.182;2022-12-18T03:48:35;10.20;;;1.60;;
20802;SDS011;10562;-33.856;151.182;2022-12-18T03:51:11;10.23;;;1.58;;
20802;SDS011;10562;-33.856;151.182;2022-12-18T03:53:47;15.98;;;2.03;;
20802;SDS011;10562;-33.856;151.182;2022-12-18T03:56:22;8.45;;;1.50;;
20802;SDS011;10562;-33.856;151.182;2022-12-18T03:58:56;7.95;;;1.58;;
20802;SDS011;10562;-33.856;151.182;2022-12-18T04:01:33;10.23;;;1.50;;
20802;SDS011;10562;-33.856;151.182;2022-12-18T04:04:07;8.43;;;1.50;;
20802;SDS011;10562;-33.856;151.182;2022-12-18T04:06:40;8.45;;;1.50;;
20802;SDS011;10562;-33.856;151.182;2022-12-18T04:09:12;7.43;;;1.33;;
20802;SDS011;10562;-33.856;151.182;2022-12-18T04:11:43;7.18;;;1.10;;
20802;SDS011;10562;-33.856;151.182;2022-12-18T04:14:15;4.72;;;1.13;;
20802;SDS011;10562;-33.856;151.182;2022-12-18T04:16:48;9.43;;;1.15;;
20802;SDS011;10562;-33.856;151.182;2022-12-18T04:19:19;7.68;;;1.40;;
20802;SDS011;10562;-33.856;151.182;2022-12-18T04:21:50;6.43;;;1.20;;
20802;SDS011;10562;-33.856;151.182;2022-12-18T04:24:21;5.10;;;0.90;;
20802;SDS011;10562;-33.856;151.182;2022-12-18T04:26:52;6.35;;;1.23;;
20802;SDS011;10562;-33.856;151.182;2022-12-18T04:29:23;5.85;;;1.20;;
20802;SDS011;10562;-33.856;151.182;2022-12-18T04:31:56;6.85;;;1.20;;
20802;SDS011;10562;-33.856;151.182;2022-12-18T04:34:27;9.15;;;1.00;;
20802;SDS011;10562;-33.856;151.182;2022-12-18T04:36:58;8.70;;;1.08;;
20802;SDS011;10562;-33.856;151.182;2022-12-18T04:39:32;7.72;;;1.00;;
20802;SDS011;10562;-33.856;151.182;2022-12-18T04:42:04;7.63;;;1.20;;
20802;SDS011;10562;-33.856;151.182;2022-12-18T04:44:35;9.10;;;1.20;;
20802;SDS011;10562;-33.856;151.182;2022-12-18T04:47:08;7.55;;;1.63;;
20802;SDS011;10562;-33.856;151.182;2022-12-18T04:49:39;9.07;;;1.20;;
20802;SDS011;10562;-33.856;151.182;2022-12-18T04:52:10;8.27;;;1.30;;
20802;SDS011;10562;-33.856;151.182;2022-12-18T04:54:41;7.75;;;1.17;;
20802;SDS011;10562;-33.856;151.182;2022-12-18T04:57:12;6.63;;;1.30;;
20802;SDS011;10562;-33.856;151.182;2022-12-18T04:59:44;3.10;;;0.80;;
20802;SDS011;10562;-33.856;151.182;2022-12-18T05:02:17;5.72;;;0.90;;
20802;SDS011;10562;-33.856;151.182;2022-12-18T05:04:47;5.05;;;1.00;;
20802;SDS011;10562;-33.856;151.182;2022-12-18T05:07:18;4.13;;;0.93;;
20802;SDS011;10562;-33.856;151.182;2022-12-18T05:09:49;7.05;;;1.20;;
20802;SDS011;10562;-33.856;151.182;2022-12-18T05:12:20;4.70;;;1.00;;
20802;SDS011;10562;-33.856;151.182;2022-12-18T05:14:54;8.02;;;1.40;;
20802;SDS011;10562;-33.856;151.182;2022-12-18T05:17:27;7.22;;;1.10;;
20802;SDS011;10562;-33.856;151.182;2022-12-18T05:19:58;7.47;;;1.30;;
20802;SDS011;10562;-33.856;151.182;2022-12-18T05:22:29;6.15;;;1.20;;
20802;SDS011;10562;-33.856;151.182;2022-12-18T05:25:06;6.50;;;0.95;;
20802;SDS011;10562;-33.856;151.182;2022-12-18T05:27:37;6.40;;;0.90;;
20802;SDS011;10562;-33.856;151.182;2022-12-18T05:30:09;6.45;;;1.00;;
20802;SDS011;10562;-33.856;151.182;2022-12-18T05:32:42;5.55;;;1.20;;
20802;SDS011;10562;-33.856;151.182;2022-12-18T05:35:13;4.57;;;0.80;;
20802;SDS011;10562;-33.856;151.182;2022-12-18T05:37:44;4.45;;;0.85;;
20802;SDS011;10562;-33.856;151.182;2022-12-18T05:40:15;8.50;;;1.17;;
20802;SDS011;10562;-33.856;151.182;2022-12-18T05:42:46;5.60;;;1.10;;
20802;SDS011;10562;-33.856;151.182;2022-12-18T05:45:17;6.72;;;0.98;;
20802;SDS011;10562;-33.856;151.182;2022-12-18T05:47:50;5.40;;;1.10;;
20802;SDS011;10562;-33.856;151.182;2022-12-18T05:50:21;8.82;;;1.40;;
20802;SDS011;10562;-33.856;151.182;2022-12-18T05:52:52;6.88;;;1.00;;
20802;SDS011;10562;-33.856;151.182;2022-12-18T05:55:22;5.88;;;1.00;;
20802;SDS011;10562;-33.856;151.182;2022-12-18T05:57:53;7.65;;;1.30;;
20802;SDS011;10562;-33.856;151.182;2022-12-18T06:00:24;7.07;;;1.02;;
20802;SDS011;10562;-33.856;151.182;2022-12-18T06:02:57;8.63;;;1.10;;
20802;SDS011;10562;-33.856;151.182;2022-12-18T06:05:28;6.45;;;1.08;;
20802;SDS011;10562;-33.856;151.182;2022-12-18T06:08:03;8.90;;;1.40;;
20802;SDS011;10562;-33.856;151.182;2022-12-18T06:10:35;6.93;;;1.30;;
20802;SDS011;10562;-33.856;151.182;2022-12-18T06:13:06;9.65;;;1.42;;
20802;SDS011;10562;-33.856;151.182;2022-12-18T06:15:37;7.28;;;1.25;;
20802;SDS011;10562;-33.856;151.182;2022-12-18T06:18:10;8.38;;;1.30;;
20802;SDS011;10562;-33.856;151.182;2022-12-18T06:20:41;9.50;;;1.67;;
20802;SDS011;10562;-33.856;151.182;2022-12-18T06:23:12;11.65;;;1.50;;
20802;SDS011;10562;-33.856;151.182;2022-12-18T06:25:43;9.00;;;1.75;;
20802;SDS011;10562;-33.856;151.182;2022-12-18T06:28:14;9.13;;;1.63;;
20802;SDS011;10562;-33.856;151.182;2022-12-18T06:30:45;4.55;;;1.20;;
20802;SDS011;10562;-33.856;151.182;2022-12-18T06:33:18;7.60;;;1.58;;
20802;SDS011;10562;-33.856;151.182;2022-12-18T06:35:49;7.18;;;1.05;;
20802;SDS011;10562;-33.856;151.182;2022-12-18T06:38:20;6.38;;;1.20;;
20802;SDS011;10562;-33.856;151.182;2022-12-18T06:40:51;7.30;;;1.23;;
20802;SDS011;10562;-33.856;151.182;2022-12-18T06:43:21;7.00;;;1.23;;
20802;SDS011;10562;-33.856;151.182;2022-12-18T06:45:57;5.53;;;1.10;;
20802;SDS011;10562;-33.856;151.182;2022-12-18T06:48:32;7.13;;;1.20;;
20802;SDS011;10562;-33.856;151.182;2022-12-18T06:51:03;9.20;;;0.95;;
20802;SDS011;10562;-33.856;151.182;2022-12-18T06:53:34;8.48;;;1.40;;
20802;SDS011;10562;-33.856;151.182;2022-12-18T06:56:05;4.82;;;1.20;;
20802;SDS011;10562;-33.856;151.182;2022-12-18T06:58:37;5.28;;;1.00;;
20802;SDS011;10562;-33.856;151.182;2022-12-18T07:01:09;7.65;;;1.20;;
20802;SDS011;10562;-33.856;151.182;2022-12-18T07:03:43;4.32;;;1.05;;
20802;SDS011;10562;-33.856;151.182;2022-12-18T07:06:14;4.90;;;1.00;;
20802;SDS011;10562;-33.856;151.182;2022-12-18T07:08:47;9.20;;;1.15;;
20802;SDS011;10562;-33.856;151.182;2022-12-18T07:11:18;6.38;;;1.05;;
20802;SDS011;10562;-33.856;151.182;2022-12-18T07:13:49;7.22;;;1.02;;
20802;SDS011;10562;-33.856;151.182;2022-12-18T07:16:21;7.13;;;1.27;;
20802;SDS011;10562;-33.856;151.182;2022-12-18T07:18:54;7.10;;;0.85;;
20802;SDS011;10562;-33.856;151.182;2022-12-18T07:21:25;5.50;;;1.05;;
20802;SDS011;10562;-33.856;151.182;2022-12-18T07:23:56;4.32;;;1.00;;
20802;SDS011;10562;-33.856;151.182;2022-12-18T07:26:27;5.35;;;1.00;;
20802;SDS011;10562;-33.856;151.182;2022-12-18T07:28:58;6.47;;;0.98;;
20802;SDS011;10562;-33.856;151.182;2022-12-18T07:31:29;9.88;;;2.05;;
20802;SDS011;10562;-33.856;151.182;2022-12-18T07:34:03;8.20;;;1.40;;
20802;SDS011;10562;-33.856;151.182;2022-12-18T07:36:34;6.28;;;1.50;;
20802;SDS011;10562;-33.856;151.182;2022-12-18T07:39:04;3.60;;;1.17;;
20802;SDS011;10562;-33.856;151.182;2022-12-18T07:41:35;11.07;;;1.30;;
20802;SDS011;10562;-33.856;151.182;2022-12-18T07:44:09;6.97;;;1.20;;
20802;SDS011;10562;-33.856;151.182;2022-12-18T07:46:40;9.45;;;1.42;;
20802;SDS011;10562;-33.856;151.182;2022-12-18T07:49:13;8.70;;;1.30;;
20802;SDS011;10562;-33.856;151.182;2022-12-18T07:51:44;9.20;;;1.20;;
20802;SDS011;10562;-33.856;151.182;2022-12-18T07:54:15;10.77;;;1.38;;
20802;SDS011;10562;-33.856;151.182;2022-12-18T07:56:46;10.65;;;1.40;;
20802;SDS011;10562;-33.856;151.182;2022-12-18T07:59:17;8.27;;;1.45;;
20802;SDS011;10562;-33.856;151.182;2022-12-18T08:01:49;9.98;;;1.52;;
20802;SDS011;10562;-33.856;151.182;2022-12-18T08:04:22;9.73;;;1.77;;
20802;SDS011;10562;-33.856;151.182;2022-12-18T08:06:52;9.85;;;1.50;;
20802;SDS011;10562;-33.856;151.182;2022-12-18T08:09:23;9.68;;;1.70;;
20802;SDS011;10562;-33.856;151.182;2022-12-18T08:11:54;7.72;;;1.05;;
20802;SDS011;10562;-33.856;151.182;2022-12-18T08:14:25;8.40;;;1.38;;
20802;SDS011;10562;-33.856;151.182;2022-12-18T08:16:56;7.78;;;1.70;;
20802;SDS011;10562;-33.856;151.182;2022-12-18T08:19:29;7.80;;;1.38;;
20802;SDS011;10562;-33.856;151.182;2022-12-18T08:21:59;6.28;;;1.33;;
20802;SDS011;10562;-33.856;151.182;2022-12-18T08:24:30;6.70;;;1.15;;
20802;SDS011;10562;-33.856;151.182;2022-12-18T08:27:01;6.18;;;1.50;;
20802;SDS011;10562;-33.856;151.182;2022-12-18T08:29:32;7.00;;;1.15;;
20802;SDS011;10562;-33.856;151.182;2022-12-18T08:32:03;7.50;;;1.55;;
20802;SDS011;10562;-33.856;151.182;2022-12-18T08:34:36;5.65;;;1.05;;
20802;SDS011;10562;-33.856;151.182;2022-12-18T08:37:07;5.38;;;1.10;;
20802;SDS011;10562;-33.856;151.182;2022-12-18T08:39:38;4.63;;;1.08;;
20802;SDS011;10562;-33.856;151.182;2022-12-18T08:42:08;3.28;;;1.00;;
20802;SDS011;10562;-33.856;151.182;2022-12-18T08:44:55;6.38;;;1.27;;
20802;SDS011;10562;-33.856;151.182;2022-12-18T08:47:26;4.65;;;0.80;;
20802;SDS011;10562;-33.856;151.182;2022-12-18T08:49:59;8.18;;;1.15;;
20802;SDS011;10562;-33.856;151.182;2022-12-18T08:52:31;7.85;;;1.25;;
20802;SDS011;10562;-33.856;151.182;2022-12-18T08:55:02;10.30;;;1.38;;
20802;SDS011;10562;-33.856;151.182;2022-12-18T08:57:34;4.55;;;0.90;;
20802;SDS011;10562;-33.856;151.182;2022-12-18T09:00:05;3.97;;;1.00;;
20802;SDS011;10562;-33.856;151.182;2022-12-18T09:02:36;5.07;;;0.98;;
20802;SDS011;10562;-33.856;151.182;2022-12-18T09:05:09;3.83;;;1.10;;
20802;SDS011;10562;-33.856;151.182;2022-12-18T09:07:40;5.72;;;1.10;;
20802;SDS011;10562;-33.856;151.182;2022-12-18T09:10:11;4.57;;;1.15;;
20802;SDS011;10562;-33.856;151.182;2022-12-18T09:12:42;3.42;;;1.17;;
20802;SDS011;10562;-33.856;151.182;2022-12-18T09:15:13;9.27;;;1.42;;
20802;SDS011;10562;-33.856;151.182;2022-12-18T09:17:44;10.52;;;4.72;;
20802;SDS011;10562;-33.856;151.182;2022-12-18T09:20:18;5.25;;;2.20;;
20802;SDS011;10562;-33.856;151.182;2022-12-18T09:22:49;8.20;;;2.30;;
20802;SDS011;10562;-33.856;151.182;2022-12-18T09:25:20;8.15;;;2.00;;
20802;SDS011;10562;-33.856;151.182;2022-12-18T09:27:50;5.72;;;1.85;;
20802;SDS011;10562;-33.856;151.182;2022-12-18T09:30:21;6.95;;;1.63;;
20802;SDS011;10562;-33.856;151.182;2022-12-18T09:32:53;10.43;;;2.15;;
20802;SDS011;10562;-33.856;151.182;2022-12-18T09:35:29;4.05;;;1.65;;
20802;SDS011;10562;-33.856;151.182;2022-12-18T09:38:00;5.50;;;2.20;;
20802;SDS011;10562;-33.856;151.182;2022-12-18T09:40:32;9.98;;;1.98;;
20802;SDS011;10562;-33.856;151.182;2022-12-18T09:43:09;5.03;;;2.00;;
20802;SDS011;10562;-33.856;151.182;2022-12-18T09:45:44;10.13;;;2.95;;
20802;SDS011;10562;-33.856;151.182;2022-12-18T09:48:18;18.95;;;7.90;;
20802;SDS011;10562;-33.856;151.182;2022-12-18T09:50:56;8.68;;;5.60;;
20802;SDS011;10562;-33.856;151.182;2022-12-18T09:53:32;17.15;;;7.30;;
20802;SDS011;10562;-33.856;151.182;2022-12-18T09:56:06;14.07;;;6.80;;
20802;SDS011;10562;-33.856;151.182;2022-12-18T09:58:47;11.95;;;3.42;;
20802;SDS011;10562;-33.856;151.182;2022-12-18T10:01:22;11.02;;;3.40;;
20802;SDS011;10562;-33.856;151.182;2022-12-18T10:03:55;10.77;;;3.38;;
20802;SDS011;10562;-33.856;151.182;2022-12-18T10:06:29;7.68;;;2.97;;
20802;SDS011;10562;-33.856;151.182;2022-12-18T10:09:05;7.75;;;2.67;;
20802;SDS011;10562;-33.856;151.182;2022-12-18T10:11:43;7.72;;;3.38;;
20802;SDS011;10562;-33.856;151.182;2022-12-18T10:14:23;10.05;;;3.45;;
20802;SDS011;10562;-33.856;151.182;2022-12-18T10:16:59;8.65;;;3.05;;
20802;SDS011;10562;-33.856;151.182;2022-12-18T10:19:38;11.15;;;3.33;;
20802;SDS011;10562;-33.856;151.182;2022-12-18T10:25:15;12.50;;;3.00;;
20802;SDS011;10562;-33.856;151.182;2022-12-18T10:27:51;6.85;;;2.53;;
20802;SDS011;10562;-33.856;151.182;2022-12-18T10:30:26;9.70;;;2.80;;
20802;SDS011;10562;-33.856;151.182;2022-12-18T10:33:00;6.03;;;2.55;;
20802;SDS011;10562;-33.856;151.182;2022-12-18T10:35:31;9.80;;;2.72;;
20802;SDS011;10562;-33.856;151.182;2022-12-18T10:38:06;9.00;;;2.47;;
20802;SDS011;10562;-33.856;151.182;2022-12-18T10:40:50;8.50;;;3.28;;
20802;SDS011;10562;-33.856;151.182;2022-12-18T10:43:24;8.50;;;3.35;;
20802;SDS011;10562;-33.856;151.182;2022-12-18T10:46:00;11.10;;;3.22;;
20802;SDS011;10562;-33.856;151.182;2022-12-18T10:48:34;9.88;;;3.60;;
20802;SDS011;10562;-33.856;151.182;2022-12-18T10:51:10;12.98;;;3.72;;
20802;SDS011;10562;-33.856;151.182;2022-12-18T10:53:55;15.38;;;4.35;;
20802;SDS011;10562;-33.856;151.182;2022-12-18T10:56:28;11.70;;;4.32;;
20802;SDS011;10562;-33.856;151.182;2022-12-18T10:59:01;10.38;;;3.53;;
20802;SDS011;10562;-33.856;151.182;2022-12-18T11:01:45;8.25;;;4.07;;
20802;SDS011;10562;-33.856;151.182;2022-12-18T11:04:19;11.30;;;5.85;;
20802;SDS011;10562;-33.856;151.182;2022-12-18T11:06:56;14.35;;;4.13;;
20802;SDS011;10562;-33.856;151.182;2022-12-18T11:09:30;8.65;;;4.20;;
20802;SDS011;10562;-33.856;151.182;2022-12-18T11:12:02;13.98;;;5.63;;
20802;SDS011;10562;-33.856;151.182;2022-12-18T11:14:43;11.90;;;4.68;;
20802;SDS011;10562;-33.856;151.182;2022-12-18T11:17:18;11.57;;;4.43;;
20802;SDS011;10562;-33.856;151.182;2022-12-18T11:19:52;15.15;;;8.25;;
20802;SDS011;10562;-33.856;151.182;2022-12-18T11:22:25;11.20;;;4.95;;
20802;SDS011;10562;-33.856;151.182;2022-12-18T11:24:59;12.65;;;5.65;;
20802;SDS011;10562;-33.856;151.182;2022-12-18T11:27:32;15.18;;;5.70;;
20802;SDS011;10562;-33.856;151.182;2022-12-18T11:30:10;17.27;;;6.15;;
20802;SDS011;10562;-33.856;151.182;2022-12-18T11:32:52;13.55;;;5.72;;
20802;SDS011;10562;-33.856;151.182;2022-12-18T11:35:28;13.05;;;10.27;;
20802;SDS011;10562;-33.856;151.182;2022-12-18T11:38:13;16.42;;;6.22;;
20802;SDS011;10562;-33.856;151.182;2022-12-18T11:40:54;9.85;;;6.90;;
20802;SDS011;10562;-33.856;151.182;2022-12-18T11:43:30;13.68;;;6.65;;
20802;SDS011;10562;-33.856;151.182;2022-12-18T11:46:05;13.75;;;6.40;;
20802;SDS011;10562;-33.856;151.182;2022-12-18T11:48:41;13.20;;;6.40;;
20802;SDS011;10562;-33.856;151.182;2022-12-18T11:51:15;17.25;;;13.93;;
20802;SDS011;10562;-33.856;151.182;2022-12-18T11:53:55;14.73;;;6.22;;
20802;SDS011;10562;-33.856;151.182;2022-12-18T11:56:32;12.07;;;6.25;;
20802;SDS011;10562;-33.856;151.182;2022-12-18T11:59:08;15.07;;;6.22;;
20802;SDS011;10562;-33.856;151.182;2022-12-18T12:01:48;14.88;;;7.00;;
20802;SDS011;10562;-33.856;151.182;2022-12-18T12:04:34;15.48;;;6.68;;
20802;SDS011;10562;-33.856;151.182;2022-12-18T12:07:18;13.70;;;6.63;;
20802;SDS011;10562;-33.856;151.182;2022-12-18T12:10:04;22.50;;;19.45;;
20802;SDS011;10562;-33.856;151.182;2022-12-18T12:12:52;12.23;;;7.07;;
20802;SDS011;10562;-33.856;151.182;2022-12-18T12:15:38;14.52;;;8.15;;
20802;SDS011;10562;-33.856;151.182;2022-12-18T12:18:19;10.43;;;7.85;;
20802;SDS011;10562;-33.856;151.182;2022-12-18T12:20:58;12.32;;;7.32;;
20802;SDS011;10562;-33.856;151.182;2022-12-18T12:23:38;18.30;;;8.13;;
20802;SDS011;10562;-33.856;151.182;2022-12-18T12:26:14;25.85;;;17.92;;
20802;SDS011;10562;-33.856;151.182;2022-12-18T12:32:00;11.70;;;7.65;;
20802;SDS011;10562;-33.856;151.182;2022-12-18T12:34:46;15.07;;;8.38;;
20802;SDS011;10562;-33.856;151.182;2022-12-18T12:37:29;10.68;;;6.75;;
20802;SDS011;10562;-33.856;151.182;2022-12-18T12:40:10;19.45;;;17.25;;
20802;SDS011;10562;-33.856;151.182;2022-12-18T12:42:44;15.15;;;6.35;;
20802;SDS011;10562;-33.856;151.182;2022-12-18T12:45:36;12.30;;;6.55;;
20802;SDS011;10562;-33.856;151.182;2022-12-18T12:48:14;13.20;;;6.38;;
20802;SDS011;10562;-33.856;151.182;2022-12-18T12:50:49;10.43;;;5.30;;
20802;SDS011;10562;-33.856;151.182;2022-12-18T12:53:23;12.27;;;4.90;;
20802;SDS011;10562;-33.856;151.182;2022-12-18T12:55:59;9.05;;;5.22;;
20802;SDS011;10562;-33.856;151.182;2022-12-18T12:58:33;9.63;;;5.60;;
20802;SDS011;10562;-33.856;151.182;2022-12-18T13:01:13;13.77;;;5.90;;
20802;SDS011;10562;-33.856;151.182;2022-12-18T13:04:00;13.98;;;5.68;;
20802;SDS011;10562;-33.856;151.182;2022-12-18T13:06:42;13.13;;;6.43;;
20802;SDS011;10562;-33.856;151.182;2022-12-18T13:09:16;12.25;;;8.82;;
20802;SDS011;10562;-33.856;151.182;2022-12-18T13:11:47;15.68;;;11.73;;
20802;SDS011;10562;-33.856;151.182;2022-12-18T13:14:34;10.40;;;6.45;;
20802;SDS011;10562;-33.856;151.182;2022-12-18T13:20:10;18.30;;;7.93;;
20802;SDS011;10562;-33.856;151.182;2022-12-18T13:22:43;23.60;;;7.55;;
20802;SDS011;10562;-33.856;151.182;2022-12-18T13:25:28;18.08;;;6.97;;
20802;SDS011;10562;-33.856;151.182;2022-12-18T13:28:08;20.10;;;6.40;;
20802;SDS011;10562;-33.856;151.182;2022-12-18T13:30:47;23.65;;;7.25;;
20802;SDS011;10562;-33.856;151.182;2022-12-18T13:33:38;20.70;;;6.82;;
20802;SDS011;10562;-33.856;151.182;2022-12-18T13:36:23;17.80;;;7.07;;
20802;SDS011;10562;-33.856;151.182;2022-12-18T13:48:22;20.77;;;6.47;;
20802;SDS011;10562;-33.856;151.182;2022-12-18T13:50:57;26.85;;;7.22;;
20802;SDS011;10562;-33.856;151.182;2022-12-18T13:53:33;22.98;;;7.00;;
20802;SDS011;10562;-33.856;151.182;2022-12-18T13:56:07;24.83;;;12.05;;
20802;SDS011;10562;-33.856;151.182;2022-12-18T13:58:37;25.55;;;7.53;;
20802;SDS011;10562;-33.856;151.182;2022-12-18T14:01:16;25.80;;;7.00;;
20802;SDS011;10562;-33.856;151.182;2022-12-18T14:03:52;24.80;;;7.03;;
20802;SDS011;10562;-33.856;151.182;2022-12-18T14:06:39;26.25;;;6.28;;
20802;SDS011;10562;-33.856;151.182;2022-12-18T14:09:15;23.95;;;6.13;;
20802;SDS011;10562;-33.856;151.182;2022-12-18T14:11:48;23.60;;;5.85;;
20802;SDS011;10562;-33.856;151.182;2022-12-18T14:14:41;25.83;;;5.35;;
20802;SDS011;10562;-33.856;151.182;2022-12-18T14:17:15;17.50;;;4.57;;
20802;SDS011;10562;-33.856;151.182;2022-12-18T14:19:47;25.85;;;5.15;;
20802;SDS011;10562;-33.856;151.182;2022-12-18T14:22:19;24.10;;;5.38;;
20802;SDS011;10562;-33.856;151.182;2022-12-18T14:25:10;27.75;;;5.40;;
20802;SDS011;10562;-33.856;151.182;2022-12-18T14:27:46;23.77;;;5.53;;
20802;SDS011;10562;-33.856;151.182;2022-12-18T14:30:26;31.63;;;5.38;;
20802;SDS011;10562;-33.856;151.182;2022-12-18T14:33:04;23.88;;;4.55;;
20802;SDS011;10562;-33.856;151.182;2022-12-18T14:35:39;22.85;;;7.72;;
20802;SDS011;10562;-33.856;151.182;2022-12-18T14:38:14;18.92;;;4.40;;
20802;SDS011;10562;-33.856;151.182;2022-12-18T14:40:55;17.02;;;4.10;;
20802;SDS011;10562;-33.856;151.182;2022-12-18T14:43:31;19.13;;;4.45;;
20802;SDS011;10562;-33.856;151.182;2022-12-18T14:46:04;18.60;;;4.32;;
20802;SDS011;10562;-33.856;151.182;2022-12-18T14:48:54;16.50;;;3.78;;
20802;SDS011;10562;-33.856;151.182;2022-12-18T14:51:26;15.30;;;4.30;;
20802;SDS011;10562;-33.856;151.182;2022-12-18T14:53:58;14.70;;;3.92;;
20802;SDS011;10562;-33.856;151.182;2022-12-18T14:56:33;10.70;;;3.33;;
20802;SDS011;10562;-33.856;151.182;2022-12-18T14:59:06;15.13;;;4.13;;
20802;SDS011;10562;-33.856;151.182;2022-12-18T15:01:45;13.27;;;3.25;;
20802;SDS011;10562;-33.856;151.182;2022-12-18T15:04:25;14.98;;;4.10;;